RYR10VU EBCI-LFML
Flight info
| Callsign | RYR10VU |
|---|---|
| Flight time | 1h 26m |
| Altitude | 37000 |
| Route | RITAX UT27 ROUSY DCT GTQ DCT POGOL DCT LASAT DCT MOROK DCT GILIR DCT GEVEA DCT INCUS DCT BALSI |
| Aircraft | B738/M-SDE2E3FGHIRWXY/LB1 |
Departure
| Time | 2026-05-06 11:41 |
|---|---|
| Airport | Brussels South Charleroi Airport (EBCI) |
Arrival
| Time | 2026-05-06 13:07 |
|---|---|
| Airport | Marseille Provence Airport (LFML) |
| Time | Latitude | Longitude | Altitude | Speed | Heading |
|---|---|---|---|---|---|
| 2026-05-06 11:10 | 50.46788 | 4.46820 | 613 ft | 0 kts | 335° |
| 2026-05-06 11:33 | 50.46770 | 4.46831 | 625 ft | 4 kts | 351° |
| 2026-05-06 11:33 | 50.46745 | 4.46829 | 627 ft | 4 kts | 28° |
| 2026-05-06 11:34 | 50.46725 | 4.46803 | 623 ft | 4 kts | 59° |
| 2026-05-06 11:34 | 50.46724 | 4.46799 | 622 ft | 0 kts | 61° |
| 2026-05-06 11:37 | 50.46725 | 4.46803 | 622 ft | 2 kts | 64° |
| 2026-05-06 11:38 | 50.46749 | 4.46880 | 618 ft | 13 kts | 66° |
| 2026-05-06 11:38 | 50.46800 | 4.47065 | 623 ft | 23 kts | 66° |
| 2026-05-06 11:38 | 50.46857 | 4.47266 | 621 ft | 18 kts | 84° |
| 2026-05-06 11:38 | 50.46767 | 4.47380 | 615 ft | 17 kts | 154° |
| 2026-05-06 11:39 | 50.46747 | 4.47395 | 619 ft | 0 kts | 155° |
| 2026-05-06 11:39 | 50.46722 | 4.47412 | 621 ft | 12 kts | 155° |
| 2026-05-06 11:40 | 50.46620 | 4.47456 | 619 ft | 16 kts | 210° |
| 2026-05-06 11:40 | 50.46571 | 4.47300 | 618 ft | 16 kts | 244° |
| 2026-05-06 11:40 | 50.46507 | 4.47077 | 618 ft | 46 kts | 246° |
| 2026-05-06 11:40 | 50.46275 | 4.46271 | 620 ft | 114 kts | 245° |
| 2026-05-06 11:41 | 50.45888 | 4.44876 | 676 ft | 160 kts | 251° |
| 2026-05-06 11:41 | 50.45452 | 4.43275 | 1412 ft | 155 kts | 251° |
| 2026-05-06 11:41 | 50.45063 | 4.41574 | 1740 ft | 188 kts | 253° |
| 2026-05-06 11:41 | 50.44521 | 4.39480 | 1945 ft | 220 kts | 248° |
| 2026-05-06 11:42 | 50.43828 | 4.37291 | 2530 ft | 229 kts | 247° |
| 2026-05-06 11:42 | 50.43101 | 4.34935 | 2885 ft | 256 kts | 246° |
| 2026-05-06 11:42 | 50.42308 | 4.32345 | 3483 ft | 271 kts | 247° |
| 2026-05-06 11:42 | 50.41475 | 4.29663 | 3963 ft | 276 kts | 246° |
| 2026-05-06 11:43 | 50.40829 | 4.26909 | 3994 ft | 263 kts | 266° |
| 2026-05-06 11:43 | 50.41086 | 4.24174 | 4070 ft | 251 kts | 296° |
| 2026-05-06 11:43 | 50.41986 | 4.21835 | 4116 ft | 252 kts | 313° |
| 2026-05-06 11:44 | 50.45031 | 4.18987 | 5387 ft | 259 kts | 339° |
| 2026-05-06 11:44 | 50.46700 | 4.17904 | 6322 ft | 260 kts | 345° |
| 2026-05-06 11:44 | 50.48494 | 4.17732 | 7063 ft | 263 kts | 12° |
| 2026-05-06 11:44 | 50.50222 | 4.18665 | 7850 ft | 267 kts | 26° |
| 2026-05-06 11:45 | 50.51852 | 4.20051 | 8749 ft | 268 kts | 28° |
| 2026-05-06 11:45 | 50.53488 | 4.21534 | 9487 ft | 276 kts | 29° |
| 2026-05-06 11:45 | 50.55177 | 4.23062 | 10111 ft | 286 kts | 29° |
| 2026-05-06 11:45 | 50.56973 | 4.24660 | 10342 ft | 309 kts | 28° |
| 2026-05-06 11:46 | 50.58919 | 4.26366 | 10524 ft | 332 kts | 28° |
| 2026-05-06 11:46 | 50.61009 | 4.28189 | 10701 ft | 353 kts | 28° |
| 2026-05-06 11:46 | 50.63154 | 4.30265 | 11008 ft | 369 kts | 39° |
| 2026-05-06 11:46 | 50.64796 | 4.33414 | 11548 ft | 377 kts | 59° |
| 2026-05-06 11:47 | 50.65916 | 4.37093 | 12396 ft | 377 kts | 64° |
| 2026-05-06 11:47 | 50.66993 | 4.40948 | 13057 ft | 383 kts | 65° |
| 2026-05-06 11:47 | 50.68060 | 4.44774 | 13768 ft | 387 kts | 65° |
| 2026-05-06 11:47 | 50.69166 | 4.48661 | 14410 ft | 392 kts | 64° |
| 2026-05-06 11:48 | 50.70307 | 4.52623 | 14949 ft | 399 kts | 64° |
| 2026-05-06 11:48 | 50.71407 | 4.56667 | 15541 ft | 405 kts | 71° |
| 2026-05-06 11:48 | 50.71754 | 4.61100 | 16176 ft | 411 kts | 92° |
| 2026-05-06 11:48 | 50.71173 | 4.65539 | 16760 ft | 418 kts | 108° |
| 2026-05-06 11:49 | 50.70258 | 4.69927 | 17423 ft | 422 kts | 108° |
| 2026-05-06 11:49 | 50.69335 | 4.74331 | 18193 ft | 423 kts | 108° |
| 2026-05-06 11:49 | 50.68428 | 4.78772 | 18727 ft | 428 kts | 108° |
| 2026-05-06 11:49 | 50.67527 | 4.83274 | 19227 ft | 433 kts | 108° |
| 2026-05-06 11:50 | 50.66612 | 4.87787 | 19894 ft | 432 kts | 111° |
| 2026-05-06 11:50 | 50.65146 | 4.91871 | 20547 ft | 430 kts | 130° |
| 2026-05-06 11:50 | 50.63045 | 4.95255 | 21025 ft | 434 kts | 136° |
| 2026-05-06 11:50 | 50.60872 | 4.98590 | 21486 ft | 438 kts | 136° |
| 2026-05-06 11:51 | 50.58687 | 5.01950 | 22018 ft | 440 kts | 136° |
| 2026-05-06 11:51 | 50.56499 | 5.05336 | 22563 ft | 442 kts | 136° |
| 2026-05-06 11:51 | 50.54314 | 5.08737 | 23124 ft | 443 kts | 136° |
| 2026-05-06 11:51 | 50.52124 | 5.12158 | 23567 ft | 446 kts | 135° |
| 2026-05-06 11:52 | 50.49906 | 5.15629 | 23825 ft | 452 kts | 135° |
| 2026-05-06 11:52 | 50.47679 | 5.19113 | 24299 ft | 452 kts | 135° |
| 2026-05-06 11:52 | 50.45449 | 5.22599 | 24745 ft | 453 kts | 135° |
| 2026-05-06 11:52 | 50.43213 | 5.26090 | 25114 ft | 455 kts | 135° |
| 2026-05-06 11:53 | 50.40963 | 5.29597 | 25513 ft | 456 kts | 135° |
| 2026-05-06 11:53 | 50.38710 | 5.33103 | 25950 ft | 456 kts | 135° |
| 2026-05-06 11:53 | 50.36448 | 5.36617 | 26248 ft | 460 kts | 135° |
| 2026-05-06 11:53 | 50.34182 | 5.40131 | 26716 ft | 458 kts | 135° |
| 2026-05-06 11:54 | 50.31915 | 5.43644 | 27124 ft | 459 kts | 135° |
| 2026-05-06 11:54 | 50.29641 | 5.47161 | 27498 ft | 459 kts | 135° |
| 2026-05-06 11:54 | 50.27367 | 5.50672 | 27902 ft | 459 kts | 135° |
| 2026-05-06 11:54 | 50.25105 | 5.54162 | 28480 ft | 455 kts | 135° |
| 2026-05-06 11:55 | 50.22843 | 5.57646 | 28831 ft | 457 kts | 135° |
| 2026-05-06 11:55 | 50.20575 | 5.61135 | 29158 ft | 459 kts | 135° |
| 2026-05-06 11:55 | 50.18306 | 5.64621 | 29643 ft | 456 kts | 135° |
| 2026-05-06 11:55 | 50.16065 | 5.68059 | 30311 ft | 449 kts | 135° |
| 2026-05-06 11:56 | 50.13835 | 5.71476 | 30626 ft | 450 kts | 135° |
| 2026-05-06 11:56 | 50.11589 | 5.74912 | 30862 ft | 452 kts | 135° |
| 2026-05-06 11:56 | 50.09345 | 5.78329 | 31295 ft | 449 kts | 137° |
| 2026-05-06 11:56 | 50.06839 | 5.81203 | 31602 ft | 449 kts | 154° |
| 2026-05-06 11:57 | 50.03960 | 5.82926 | 31899 ft | 449 kts | 162° |
| 2026-05-06 11:57 | 50.00989 | 5.84409 | 32297 ft | 448 kts | 163° |
| 2026-05-06 11:57 | 49.98009 | 5.85873 | 32587 ft | 449 kts | 163° |
| 2026-05-06 11:57 | 49.95029 | 5.87349 | 32889 ft | 449 kts | 163° |
| 2026-05-06 11:58 | 49.92052 | 5.88845 | 33303 ft | 448 kts | 163° |
| 2026-05-06 11:58 | 49.89104 | 5.90344 | 33756 ft | 445 kts | 163° |
| 2026-05-06 11:58 | 49.86172 | 5.91846 | 34218 ft | 441 kts | 163° |
| 2026-05-06 11:58 | 49.83264 | 5.93338 | 34538 ft | 441 kts | 163° |
| 2026-05-06 11:59 | 49.80344 | 5.94837 | 34713 ft | 444 kts | 163° |
| 2026-05-06 11:59 | 49.77401 | 5.96345 | 34899 ft | 446 kts | 163° |
| 2026-05-06 11:59 | 49.74460 | 5.97850 | 35166 ft | 445 kts | 163° |
| 2026-05-06 11:59 | 49.71559 | 5.99332 | 35456 ft | 444 kts | 163° |
| 2026-05-06 12:00 | 49.68581 | 6.00852 | 35690 ft | 445 kts | 163° |
| 2026-05-06 12:00 | 49.65643 | 6.02348 | 35903 ft | 445 kts | 163° |
| 2026-05-06 12:00 | 49.62699 | 6.03846 | 36136 ft | 446 kts | 163° |
| 2026-05-06 12:00 | 49.59755 | 6.05342 | 36386 ft | 445 kts | 163° |
| 2026-05-06 12:01 | 49.56851 | 6.06817 | 36616 ft | 445 kts | 163° |
| 2026-05-06 12:01 | 49.53867 | 6.08329 | 36814 ft | 446 kts | 163° |
| 2026-05-06 12:01 | 49.48045 | 6.11661 | 36791 ft | 451 kts | 155° |
| 2026-05-06 12:02 | 49.42892 | 6.17120 | 36812 ft | 451 kts | 143° |
| 2026-05-06 12:02 | 49.38044 | 6.23242 | 36796 ft | 450 kts | 143° |
| 2026-05-06 12:03 | 49.33207 | 6.29295 | 36790 ft | 447 kts | 143° |
| 2026-05-06 12:03 | 49.28368 | 6.35272 | 36803 ft | 445 kts | 144° |
| 2026-05-06 12:04 | 49.23539 | 6.41201 | 36804 ft | 445 kts | 144° |
| 2026-05-06 12:04 | 49.18707 | 6.47118 | 36814 ft | 444 kts | 144° |
| 2026-05-06 12:05 | 49.13880 | 6.53018 | 36822 ft | 444 kts | 144° |
| 2026-05-06 12:05 | 49.09041 | 6.58918 | 36794 ft | 446 kts | 144° |
| 2026-05-06 12:06 | 49.05008 | 6.63826 | 36783 ft | 448 kts | 144° |
| 2026-05-06 12:06 | 48.99044 | 6.69941 | 36817 ft | 442 kts | 162° |
| 2026-05-06 12:07 | 48.93046 | 6.71571 | 36795 ft | 439 kts | 183° |
| 2026-05-06 12:07 | 48.87913 | 6.71305 | 36797 ft | 441 kts | 184° |
| 2026-05-06 12:08 | 48.81776 | 6.70963 | 36797 ft | 441 kts | 183° |
| 2026-05-06 12:08 | 48.75632 | 6.70686 | 36795 ft | 441 kts | 183° |
| 2026-05-06 12:09 | 48.69488 | 6.70444 | 36805 ft | 443 kts | 183° |
| 2026-05-06 12:09 | 48.63317 | 6.70206 | 36810 ft | 444 kts | 183° |
| 2026-05-06 12:10 | 48.57132 | 6.69967 | 36792 ft | 444 kts | 183° |
| 2026-05-06 12:10 | 48.51013 | 6.69730 | 36808 ft | 441 kts | 183° |
| 2026-05-06 12:11 | 48.44885 | 6.69493 | 36812 ft | 440 kts | 183° |
| 2026-05-06 12:11 | 48.38778 | 6.69257 | 36816 ft | 439 kts | 183° |
| 2026-05-06 12:12 | 48.32684 | 6.69028 | 36838 ft | 437 kts | 183° |
| 2026-05-06 12:12 | 48.26597 | 6.68800 | 36834 ft | 437 kts | 183° |
| 2026-05-06 12:13 | 48.20515 | 6.68573 | 36833 ft | 437 kts | 183° |
| 2026-05-06 12:13 | 48.14428 | 6.68345 | 36852 ft | 437 kts | 183° |
| 2026-05-06 12:14 | 48.08338 | 6.68118 | 36861 ft | 438 kts | 183° |
| 2026-05-06 12:14 | 48.02240 | 6.67892 | 36854 ft | 438 kts | 183° |
| 2026-05-06 12:15 | 47.96140 | 6.67666 | 36867 ft | 438 kts | 183° |
| 2026-05-06 12:15 | 47.90043 | 6.67441 | 36859 ft | 438 kts | 183° |
| 2026-05-06 12:16 | 47.83950 | 6.67216 | 36881 ft | 438 kts | 183° |
| 2026-05-06 12:16 | 47.77909 | 6.66994 | 36867 ft | 437 kts | 183° |
| 2026-05-06 12:17 | 47.71793 | 6.66770 | 36884 ft | 436 kts | 183° |
| 2026-05-06 12:17 | 47.65764 | 6.66549 | 36886 ft | 436 kts | 183° |
| 2026-05-06 12:18 | 47.59699 | 6.66327 | 36876 ft | 436 kts | 183° |
| 2026-05-06 12:18 | 47.53623 | 6.66106 | 36881 ft | 436 kts | 183° |
| 2026-05-06 12:19 | 47.47563 | 6.65885 | 36883 ft | 436 kts | 183° |
| 2026-05-06 12:19 | 47.41549 | 6.65076 | 36890 ft | 432 kts | 198° |
| 2026-05-06 12:20 | 47.36154 | 6.61290 | 36877 ft | 431 kts | 217° |
| 2026-05-06 12:20 | 47.31585 | 6.55558 | 36891 ft | 432 kts | 220° |
| 2026-05-06 12:21 | 47.27035 | 6.49742 | 36894 ft | 434 kts | 220° |
| 2026-05-06 12:21 | 47.22434 | 6.43958 | 36891 ft | 435 kts | 220° |
| 2026-05-06 12:22 | 47.17821 | 6.38207 | 36892 ft | 435 kts | 219° |
| 2026-05-06 12:22 | 47.13208 | 6.32470 | 36889 ft | 433 kts | 219° |
| 2026-05-06 12:23 | 47.08525 | 6.26946 | 36885 ft | 431 kts | 211° |
| 2026-05-06 12:23 | 47.02993 | 6.23597 | 36904 ft | 432 kts | 195° |
| 2026-05-06 12:24 | 46.97048 | 6.22516 | 36904 ft | 434 kts | 187° |
| 2026-05-06 12:24 | 46.91011 | 6.21800 | 36903 ft | 435 kts | 187° |
| 2026-05-06 12:25 | 46.84980 | 6.21049 | 36897 ft | 434 kts | 187° |
| 2026-05-06 12:25 | 46.78977 | 6.20262 | 36893 ft | 433 kts | 187° |
| 2026-05-06 12:26 | 46.72986 | 6.19465 | 36906 ft | 432 kts | 187° |
| 2026-05-06 12:26 | 46.67009 | 6.18671 | 36910 ft | 431 kts | 187° |
| 2026-05-06 12:27 | 46.61033 | 6.17879 | 36915 ft | 432 kts | 187° |
| 2026-05-06 12:27 | 46.55039 | 6.17088 | 36912 ft | 433 kts | 187° |
| 2026-05-06 12:28 | 46.49041 | 6.16298 | 36909 ft | 432 kts | 187° |
| 2026-05-06 12:28 | 46.43038 | 6.15509 | 36916 ft | 432 kts | 187° |
| 2026-05-06 12:29 | 46.37071 | 6.14726 | 36928 ft | 433 kts | 187° |
| 2026-05-06 12:29 | 46.31072 | 6.13941 | 36943 ft | 432 kts | 187° |
| 2026-05-06 12:30 | 46.25072 | 6.13143 | 36936 ft | 432 kts | 189° |
| 2026-05-06 12:30 | 46.19127 | 6.11899 | 36936 ft | 431 kts | 191° |
| 2026-05-06 12:31 | 46.13195 | 6.10526 | 36945 ft | 432 kts | 191° |
| 2026-05-06 12:31 | 46.07255 | 6.09185 | 36933 ft | 432 kts | 191° |
| 2026-05-06 12:32 | 46.01306 | 6.07870 | 36934 ft | 433 kts | 191° |
| 2026-05-06 12:32 | 45.95352 | 6.06562 | 36931 ft | 432 kts | 191° |
| 2026-05-06 12:33 | 45.89419 | 6.05261 | 36944 ft | 431 kts | 191° |
| 2026-05-06 12:33 | 45.83484 | 6.03958 | 36943 ft | 431 kts | 191° |
| 2026-05-06 12:34 | 45.77557 | 6.02651 | 36925 ft | 431 kts | 191° |
| 2026-05-06 12:34 | 45.71628 | 6.01343 | 36949 ft | 431 kts | 191° |
| 2026-05-06 12:35 | 45.65740 | 6.00050 | 36974 ft | 430 kts | 191° |
| 2026-05-06 12:35 | 45.59814 | 5.98749 | 36970 ft | 431 kts | 191° |
| 2026-05-06 12:36 | 45.53871 | 5.97448 | 36962 ft | 431 kts | 191° |
| 2026-05-06 12:36 | 45.48087 | 5.95466 | 36963 ft | 425 kts | 208° |
| 2026-05-06 12:37 | 45.45610 | 5.93209 | 36922 ft | 423 kts | 221° |
| 2026-05-06 12:37 | 45.43485 | 5.90311 | 36952 ft | 423 kts | 225° |
| 2026-05-06 12:37 | 45.39387 | 5.84302 | 36927 ft | 423 kts | 226° |
| 2026-05-06 12:38 | 45.35285 | 5.78301 | 36961 ft | 423 kts | 225° |
| 2026-05-06 12:38 | 45.33208 | 5.75306 | 36566 ft | 429 kts | 225° |
| 2026-05-06 12:38 | 45.31109 | 5.72301 | 36044 ft | 427 kts | 225° |
| 2026-05-06 12:39 | 45.29016 | 5.69314 | 35420 ft | 425 kts | 225° |
| 2026-05-06 12:39 | 45.26927 | 5.66340 | 34745 ft | 425 kts | 225° |
| 2026-05-06 12:39 | 45.24843 | 5.63375 | 34156 ft | 423 kts | 225° |
| 2026-05-06 12:39 | 45.22773 | 5.60431 | 33458 ft | 419 kts | 225° |
| 2026-05-06 12:40 | 45.20709 | 5.57498 | 32497 ft | 422 kts | 225° |
| 2026-05-06 12:40 | 45.18646 | 5.54568 | 31821 ft | 417 kts | 225° |
| 2026-05-06 12:40 | 45.16601 | 5.51666 | 31005 ft | 416 kts | 225° |
| 2026-05-06 12:40 | 45.14553 | 5.48764 | 30257 ft | 414 kts | 225° |
| 2026-05-06 12:41 | 45.12518 | 5.45883 | 29228 ft | 415 kts | 225° |
| 2026-05-06 12:41 | 45.10483 | 5.43009 | 28789 ft | 405 kts | 225° |
| 2026-05-06 12:41 | 45.08519 | 5.40241 | 28439 ft | 397 kts | 225° |
| 2026-05-06 12:41 | 45.06544 | 5.37463 | 28179 ft | 407 kts | 225° |
| 2026-05-06 12:42 | 45.04536 | 5.34644 | 27912 ft | 416 kts | 225° |
| 2026-05-06 12:42 | 45.02471 | 5.31743 | 27601 ft | 418 kts | 225° |
| 2026-05-06 12:42 | 45.00411 | 5.28850 | 27293 ft | 415 kts | 225° |
| 2026-05-06 12:42 | 44.98369 | 5.25988 | 27008 ft | 411 kts | 225° |
| 2026-05-06 12:43 | 44.96343 | 5.23150 | 26726 ft | 408 kts | 225° |
| 2026-05-06 12:43 | 44.94330 | 5.20333 | 26458 ft | 407 kts | 225° |
| 2026-05-06 12:43 | 44.92319 | 5.17520 | 26189 ft | 407 kts | 225° |
| 2026-05-06 12:43 | 44.90309 | 5.14713 | 25897 ft | 407 kts | 225° |
| 2026-05-06 12:44 | 44.88290 | 5.11898 | 25619 ft | 408 kts | 225° |
| 2026-05-06 12:44 | 44.86281 | 5.09096 | 25326 ft | 403 kts | 225° |
| 2026-05-06 12:44 | 44.84286 | 5.06314 | 25012 ft | 409 kts | 225° |
| 2026-05-06 12:44 | 44.82224 | 5.03448 | 24787 ft | 424 kts | 225° |
| 2026-05-06 12:45 | 44.80098 | 5.00495 | 24553 ft | 433 kts | 225° |
| 2026-05-06 12:45 | 44.77953 | 4.97520 | 24295 ft | 431 kts | 225° |
| 2026-05-06 12:45 | 44.73395 | 4.92523 | 23623 ft | 411 kts | 204° |
| 2026-05-06 12:46 | 44.70649 | 4.91397 | 23282 ft | 413 kts | 193° |
| 2026-05-06 12:46 | 44.67782 | 4.91110 | 22963 ft | 415 kts | 179° |
| 2026-05-06 12:46 | 44.64918 | 4.91648 | 22680 ft | 415 kts | 173° |
| 2026-05-06 12:46 | 44.62071 | 4.92341 | 22367 ft | 414 kts | 173° |
| 2026-05-06 12:47 | 44.59241 | 4.93057 | 22092 ft | 413 kts | 173° |
| 2026-05-06 12:47 | 44.56445 | 4.93757 | 21796 ft | 412 kts | 173° |
| 2026-05-06 12:47 | 44.53623 | 4.94448 | 21505 ft | 411 kts | 173° |
| 2026-05-06 12:47 | 44.50804 | 4.95123 | 21185 ft | 410 kts | 173° |
| 2026-05-06 12:48 | 44.47993 | 4.95785 | 20942 ft | 408 kts | 175° |
| 2026-05-06 12:48 | 44.45195 | 4.96438 | 20668 ft | 406 kts | 175° |
| 2026-05-06 12:48 | 44.43315 | 4.96875 | 20468 ft | 405 kts | 175° |
| 2026-05-06 12:48 | 44.40581 | 4.97510 | 20195 ft | 403 kts | 175° |
| 2026-05-06 12:49 | 44.37820 | 4.98149 | 19921 ft | 401 kts | 175° |
| 2026-05-06 12:49 | 44.35070 | 4.98786 | 19645 ft | 399 kts | 174° |
| 2026-05-06 12:49 | 44.32298 | 4.99427 | 19368 ft | 398 kts | 174° |
| 2026-05-06 12:49 | 44.29601 | 5.00051 | 19088 ft | 397 kts | 175° |
| 2026-05-06 12:50 | 44.26877 | 5.00680 | 18815 ft | 397 kts | 175° |
| 2026-05-06 12:50 | 44.24154 | 5.01308 | 18552 ft | 395 kts | 175° |
| 2026-05-06 12:50 | 44.21445 | 5.01933 | 18283 ft | 395 kts | 175° |
| 2026-05-06 12:50 | 44.18731 | 5.02558 | 17991 ft | 395 kts | 174° |
| 2026-05-06 12:51 | 44.16021 | 5.03182 | 17684 ft | 394 kts | 174° |
| 2026-05-06 12:51 | 44.13320 | 5.03804 | 17404 ft | 392 kts | 174° |
| 2026-05-06 12:51 | 44.10631 | 5.04423 | 17110 ft | 390 kts | 175° |
| 2026-05-06 12:51 | 44.07959 | 5.05037 | 16849 ft | 389 kts | 175° |
| 2026-05-06 12:52 | 44.05295 | 5.05648 | 16588 ft | 388 kts | 175° |
| 2026-05-06 12:52 | 44.02638 | 5.06256 | 16316 ft | 386 kts | 175° |
| 2026-05-06 12:52 | 43.99980 | 5.06865 | 16060 ft | 385 kts | 175° |
| 2026-05-06 12:52 | 43.97338 | 5.07470 | 15794 ft | 384 kts | 174° |
| 2026-05-06 12:53 | 43.94701 | 5.08073 | 15534 ft | 383 kts | 174° |
| 2026-05-06 12:53 | 43.92074 | 5.08673 | 15264 ft | 382 kts | 174° |
| 2026-05-06 12:53 | 43.89455 | 5.09271 | 14992 ft | 380 kts | 174° |
| 2026-05-06 12:53 | 43.86851 | 5.10018 | 14645 ft | 390 kts | 168° |
| 2026-05-06 12:54 | 43.84222 | 5.11217 | 14255 ft | 403 kts | 163° |
| 2026-05-06 12:54 | 43.81589 | 5.12567 | 13833 ft | 403 kts | 163° |
| 2026-05-06 12:54 | 43.78972 | 5.13911 | 13377 ft | 398 kts | 163° |
| 2026-05-06 12:54 | 43.76381 | 5.15193 | 12922 ft | 393 kts | 164° |
| 2026-05-06 12:55 | 43.73817 | 5.16418 | 12511 ft | 386 kts | 164° |
| 2026-05-06 12:55 | 43.71313 | 5.17601 | 12098 ft | 375 kts | 164° |
| 2026-05-06 12:55 | 43.68863 | 5.18726 | 11729 ft | 366 kts | 165° |
| 2026-05-06 12:55 | 43.66467 | 5.19796 | 11373 ft | 358 kts | 165° |
| 2026-05-06 12:56 | 43.64111 | 5.20846 | 10992 ft | 352 kts | 165° |
| 2026-05-06 12:56 | 43.61804 | 5.21879 | 10632 ft | 346 kts | 165° |
| 2026-05-06 12:56 | 43.59532 | 5.22896 | 10276 ft | 340 kts | 166° |
| 2026-05-06 12:56 | 43.57244 | 5.23424 | 9934 ft | 329 kts | 185° |
| 2026-05-06 12:57 | 43.55042 | 5.23123 | 9902 ft | 313 kts | 189° |
| 2026-05-06 12:57 | 43.52927 | 5.22815 | 9880 ft | 299 kts | 189° |
| 2026-05-06 12:57 | 43.50900 | 5.22541 | 9856 ft | 286 kts | 189° |
| 2026-05-06 12:57 | 43.48962 | 5.22291 | 9813 ft | 274 kts | 189° |
| 2026-05-06 12:58 | 43.47019 | 5.22042 | 8995 ft | 284 kts | 189° |
| 2026-05-06 12:58 | 43.45031 | 5.21792 | 8379 ft | 285 kts | 189° |
| 2026-05-06 12:58 | 43.43100 | 5.21558 | 8134 ft | 272 kts | 188° |
| 2026-05-06 12:58 | 43.41198 | 5.21340 | 7641 ft | 272 kts | 189° |
| 2026-05-06 12:59 | 43.39305 | 5.21126 | 7305 ft | 273 kts | 188° |
| 2026-05-06 12:59 | 43.37418 | 5.20913 | 7025 ft | 271 kts | 189° |
| 2026-05-06 12:59 | 43.35547 | 5.20701 | 6755 ft | 269 kts | 189° |
| 2026-05-06 12:59 | 43.33689 | 5.20487 | 6489 ft | 267 kts | 189° |
| 2026-05-06 13:00 | 43.31838 | 5.20278 | 6213 ft | 266 kts | 189° |
| 2026-05-06 13:00 | 43.29998 | 5.20072 | 5940 ft | 264 kts | 189° |
| 2026-05-06 13:00 | 43.28164 | 5.20213 | 5643 ft | 271 kts | 165° |
| 2026-05-06 13:00 | 43.26526 | 5.21515 | 5416 ft | 274 kts | 146° |
| 2026-05-06 13:01 | 43.25033 | 5.23120 | 5174 ft | 271 kts | 145° |
| 2026-05-06 13:01 | 43.23668 | 5.24832 | 4978 ft | 261 kts | 128° |
| 2026-05-06 13:01 | 43.22992 | 5.27040 | 4866 ft | 244 kts | 102° |
| 2026-05-06 13:01 | 43.22866 | 5.29265 | 4731 ft | 226 kts | 84° |
| 2026-05-06 13:02 | 43.23376 | 5.31198 | 4410 ft | 216 kts | 48° |
| 2026-05-06 13:02 | 43.24514 | 5.32450 | 4092 ft | 206 kts | 20° |
| 2026-05-06 13:02 | 43.25849 | 5.32925 | 3843 ft | 192 kts | 356° |
| 2026-05-06 13:02 | 43.27152 | 5.32909 | 3673 ft | 184 kts | 353° |
| 2026-05-06 13:03 | 43.28413 | 5.32878 | 3478 ft | 179 kts | 353° |
| 2026-05-06 13:03 | 43.29643 | 5.32846 | 3286 ft | 173 kts | 353° |
| 2026-05-06 13:03 | 43.30837 | 5.32816 | 3119 ft | 174 kts | 353° |
| 2026-05-06 13:03 | 43.32066 | 5.32783 | 3042 ft | 177 kts | 355° |
| 2026-05-06 13:04 | 43.33295 | 5.32754 | 3003 ft | 175 kts | 354° |
| 2026-05-06 13:04 | 43.34498 | 5.32725 | 2990 ft | 172 kts | 353° |
| 2026-05-06 13:04 | 43.35701 | 5.32574 | 2773 ft | 178 kts | 331° |
| 2026-05-06 13:04 | 43.36614 | 5.31545 | 2535 ft | 173 kts | 310° |
| 2026-05-06 13:05 | 43.37463 | 5.30364 | 2254 ft | 174 kts | 310° |
| 2026-05-06 13:05 | 43.38308 | 5.29164 | 1927 ft | 179 kts | 310° |
| 2026-05-06 13:05 | 43.39172 | 5.27927 | 1603 ft | 177 kts | 309° |
| 2026-05-06 13:05 | 43.40012 | 5.26730 | 1284 ft | 171 kts | 309° |
| 2026-05-06 13:06 | 43.40816 | 5.25582 | 997 ft | 163 kts | 309° |
| 2026-05-06 13:06 | 43.41587 | 5.24480 | 682 ft | 156 kts | 308° |
| 2026-05-06 13:06 | 43.42328 | 5.23425 | 395 ft | 151 kts | 307° |
| 2026-05-06 13:06 | 43.43058 | 5.22388 | 110 ft | 151 kts | 307° |
| 2026-05-06 13:07 | 43.43719 | 5.21402 | 43 ft | 126 kts | 304° |
| 2026-05-06 13:07 | 43.44224 | 5.20695 | 26 ft | 88 kts | 314° |
| 2026-05-06 13:07 | 43.44507 | 5.20300 | 21 ft | 30 kts | 306° |
| 2026-05-06 13:07 | 43.44679 | 5.20299 | 17 ft | 29 kts | 62° |
| 2026-05-06 13:08 | 43.44593 | 5.20446 | 19 ft | 21 kts | 136° |
| 2026-05-06 13:08 | 43.44489 | 5.20580 | 22 ft | 21 kts | 132° |
| 2026-05-06 13:08 | 43.44403 | 5.20732 | 26 ft | 20 kts | 136° |
| 2026-05-06 13:08 | 43.44315 | 5.20875 | 26 ft | 19 kts | 123° |
| 2026-05-06 13:09 | 43.44293 | 5.20925 | 26 ft | 0 kts | 116° |
| 2026-05-06 13:10 | 43.44282 | 5.20950 | 27 ft | 13 kts | 120° |
| 2026-05-06 13:10 | 43.44223 | 5.21061 | 28 ft | 14 kts | 128° |
| 2026-05-06 13:10 | 43.44194 | 5.21184 | 30 ft | 14 kts | 85° |
| 2026-05-06 13:10 | 43.44210 | 5.21305 | 30 ft | 13 kts | 111° |
| 2026-05-06 13:11 | 43.44150 | 5.21397 | 32 ft | 13 kts | 123° |
| 2026-05-06 13:11 | 43.44099 | 5.21493 | 34 ft | 12 kts | 124° |
| 2026-05-06 13:11 | 43.44105 | 5.21607 | 33 ft | 12 kts | 73° |
| 2026-05-06 13:11 | 43.44123 | 5.21718 | 35 ft | 12 kts | 80° |
| 2026-05-06 13:12 | 43.44102 | 5.21823 | 37 ft | 12 kts | 122° |
| 2026-05-06 13:12 | 43.44055 | 5.21910 | 38 ft | 11 kts | 123° |
| 2026-05-06 13:12 | 43.44013 | 5.21999 | 40 ft | 11 kts | 128° |
| 2026-05-06 13:12 | 43.43969 | 5.22080 | 41 ft | 11 kts | 107° |
| 2026-05-06 13:13 | 43.44006 | 5.22149 | 41 ft | 3 kts | 35° |
| 2026-05-06 13:13 | 43.44006 | 5.22150 | 41 ft | 0 kts | 35° |
| 2026-05-06 13:13 | 43.44017 | 5.22165 | 41 ft | 0 kts | 33° |